createdAt,value
2017-03-13T00:00:02.795Z,0
2017-03-13T00:05:02.595Z,0
2017-03-13T00:10:03.370Z,0
2017-03-13T00:15:02.972Z,0
2017-03-13T00:20:02.657Z,0
2017-03-13T00:25:03.333Z,0
2017-03-13T00:30:02.976Z,0
2017-03-13T00:35:02.590Z,0
2017-03-13T00:40:03.363Z,0
2017-03-13T00:45:03.002Z,0
2017-03-13T00:50:02.827Z,0
2017-03-13T00:55:02.551Z,0
2017-03-13T01:00:03.259Z,0
2017-03-13T01:05:03.280Z,0
2017-03-13T01:10:03.072Z,0
2017-03-13T01:15:02.689Z,0
2017-03-13T01:20:03.290Z,0
2017-03-13T01:25:02.984Z,0
2017-03-13T01:30:02.728Z,0
2017-03-13T01:35:03.445Z,0
2017-03-13T01:40:03.226Z,0
2017-03-13T01:45:02.950Z,0
2017-03-13T01:50:02.818Z,0
2017-03-13T01:55:02.653Z,0
2017-03-13T02:00:03.285Z,0
2017-03-13T02:05:02.955Z,0
2017-03-13T02:10:02.777Z,0
2017-03-13T02:15:03.479Z,0
2017-03-13T02:20:03.189Z,0
2017-03-13T02:25:02.867Z,0
2017-03-13T02:30:02.496Z,0
2017-03-13T02:35:03.212Z,0
2017-03-13T02:40:02.888Z,0
2017-03-13T02:45:02.479Z,0
2017-03-13T02:50:03.234Z,0
2017-03-13T02:55:02.870Z,0
2017-03-13T03:00:02.543Z,0
2017-03-13T03:05:03.254Z,0
2017-03-13T03:10:03.033Z,0
2017-03-13T03:15:02.737Z,0
2017-03-13T03:20:03.393Z,0
2017-03-13T03:25:03.155Z,0
2017-03-13T03:30:02.874Z,0
2017-03-13T03:35:02.789Z,0
2017-03-13T03:40:02.623Z,0
2017-03-13T03:45:03.274Z,0
2017-03-13T03:50:03.034Z,0
2017-03-13T03:55:02.766Z,0
2017-03-13T04:00:02.621Z,0
2017-03-13T04:05:03.374Z,0
2017-03-13T04:10:03.182Z,0
2017-03-13T04:15:02.813Z,0
2017-03-13T04:20:02.476Z,0
2017-03-13T04:25:03.035Z,0
2017-03-13T04:30:02.780Z,0
2017-03-13T04:35:03.380Z,0
2017-03-13T04:40:03.200Z,0
2017-03-13T04:45:02.935Z,0
2017-03-13T04:50:02.653Z,0
2017-03-13T04:55:03.422Z,0
2017-03-13T05:00:03.414Z,0
2017-03-13T05:05:18.250Z,0
2017-03-13T05:10:03.026Z,0
2017-03-13T05:15:02.893Z,0
2017-03-13T05:20:02.618Z,0
2017-03-13T05:25:03.445Z,2
2017-03-13T05:30:03.155Z,6
2017-03-13T05:35:03.016Z,15
2017-03-13T05:40:02.826Z,38
2017-03-13T05:45:02.601Z,55
2017-03-13T05:50:03.375Z,72
2017-03-13T05:55:03.065Z,172
2017-03-13T06:00:02.733Z,277
2017-03-13T06:05:02.558Z,376
2017-03-13T06:10:03.351Z,508
2017-03-13T06:15:03.118Z,769
2017-03-13T06:20:02.792Z,917
2017-03-13T06:25:02.521Z,1000
2017-03-13T06:30:03.362Z,1000
2017-03-13T06:35:02.985Z,1000
2017-03-13T06:40:02.663Z,1000
2017-03-13T06:45:03.417Z,1000
2017-03-13T06:50:03.269Z,1000
2017-03-13T06:55:02.940Z,2000
2017-03-13T07:00:02.730Z,2000
2017-03-13T07:05:03.351Z,2000
2017-03-13T07:10:03.116Z,2000
2017-03-13T07:15:02.878Z,3000
2017-03-13T07:20:02.495Z,3000
2017-03-13T07:25:03.202Z,3000
2017-03-13T07:30:02.936Z,3000
2017-03-13T07:35:02.721Z,3000
2017-03-13T07:40:03.472Z,3000
2017-03-13T07:45:03.137Z,3000
2017-03-13T07:50:02.879Z,3000
2017-03-13T07:55:02.630Z,3000
2017-03-13T08:00:03.394Z,3000
2017-03-13T08:05:03.368Z,3000
2017-03-13T08:10:03.180Z,3000
2017-03-13T08:15:02.943Z,24000
2017-03-13T08:20:02.808Z,34000
2017-03-13T08:25:02.588Z,36000
2017-03-13T08:30:03.459Z,38000
2017-03-13T08:35:03.260Z,39000
2017-03-13T08:40:03.045Z,39000
2017-03-13T08:45:02.839Z,40000
2017-03-13T08:50:02.643Z,40000
2017-03-13T08:55:03.313Z,44000
2017-03-13T09:00:03.051Z,46000
2017-03-13T09:05:02.735Z,32000
2017-03-13T09:10:02.553Z,37000
2017-03-13T09:15:03.413Z,30000
2017-03-13T09:20:03.283Z,34000
2017-03-13T09:25:03.041Z,27000
2017-03-13T09:30:02.823Z,34000
2017-03-13T09:35:02.625Z,39000
2017-03-13T09:40:03.487Z,36000
2017-03-13T09:45:03.329Z,38000
2017-03-13T09:50:03.274Z,35000
2017-03-13T09:55:02.964Z,37000
2017-03-13T10:00:02.625Z,37000
2017-03-13T10:05:02.828Z,38000
2017-03-13T10:10:02.550Z,42000
2017-03-13T10:15:03.175Z,44000
2017-03-13T10:20:02.990Z,32000
2017-03-13T10:25:02.790Z,35000
2017-03-13T10:30:02.484Z,32000
2017-03-13T10:35:03.196Z,29000
2017-03-13T10:40:02.885Z,37000
2017-03-13T10:45:02.611Z,37000
2017-03-13T10:50:03.467Z,45000
2017-03-13T10:55:03.364Z,33000
2017-03-13T11:00:03.148Z,36000
2017-03-13T11:05:02.717Z,43000
2017-03-13T11:10:02.529Z,37000
2017-03-13T11:15:03.358Z,42000
2017-03-13T11:20:03.076Z,28000
2017-03-13T11:25:02.940Z,30000
2017-03-13T11:30:03.140Z,37000
2017-03-13T11:35:02.836Z,34000
2017-03-13T11:40:03.005Z,34000
2017-03-13T11:45:03.349Z,36000
2017-03-13T11:50:03.313Z,34000
2017-03-13T11:55:03.249Z,32000
2017-03-13T12:00:03.050Z,32000
2017-03-13T12:05:02.842Z,33000
2017-03-13T12:10:02.769Z,31000
2017-03-13T12:15:02.581Z,42000
2017-03-13T12:20:02.479Z,27000
2017-03-13T12:25:03.105Z,23000
2017-03-13T12:30:03.016Z,39000
2017-03-13T12:35:02.672Z,28000
2017-03-13T12:40:02.511Z,37000
2017-03-13T12:45:03.338Z,27000
2017-03-13T12:50:03.120Z,27000
2017-03-13T12:55:02.862Z,32000
2017-03-13T13:00:02.497Z,21000
2017-03-13T13:05:03.276Z,29000
2017-03-13T13:10:02.948Z,23000
2017-03-13T13:15:02.639Z,18000
2017-03-13T13:20:03.290Z,23000
2017-03-13T13:25:03.016Z,17000
2017-03-13T13:30:02.660Z,23000
2017-03-13T13:35:03.383Z,17000
2017-03-13T13:40:03.027Z,13000
2017-03-13T13:45:02.765Z,14000
2017-03-13T13:50:03.577Z,11000
2017-03-13T13:55:03.293Z,7000
2017-03-13T14:00:03.006Z,5000
2017-03-13T14:05:02.548Z,6000
2017-03-13T14:10:03.173Z,8000
2017-03-13T14:15:02.856Z,7000
2017-03-13T14:20:02.882Z,7000
2017-03-13T14:25:02.596Z,7000
2017-03-13T14:30:03.189Z,7000
2017-03-13T14:35:02.791Z,7000
2017-03-13T14:40:02.491Z,7000
2017-03-13T14:45:03.085Z,6000
2017-03-13T14:50:02.915Z,6000
2017-03-13T14:55:02.559Z,6000
2017-03-13T15:00:03.148Z,6000
2017-03-13T15:05:02.706Z,5000
2017-03-13T15:10:02.553Z,5000
2017-03-13T15:15:03.258Z,4000
2017-03-13T15:20:02.978Z,4000
2017-03-13T15:25:02.677Z,5000
2017-03-13T15:30:03.408Z,4000
2017-03-13T15:35:03.136Z,4000
2017-03-13T15:40:02.847Z,10000
2017-03-13T15:45:02.763Z,8000
2017-03-13T15:50:03.495Z,6000
2017-03-13T15:55:03.013Z,7000
2017-03-13T16:00:02.701Z,11000
2017-03-13T16:05:03.397Z,5000
2017-03-13T16:10:03.126Z,12000
2017-03-13T16:15:02.854Z,5000
2017-03-13T16:20:02.591Z,4000
2017-03-13T16:25:03.231Z,3000
2017-03-13T16:30:02.953Z,3000
2017-03-13T16:35:02.633Z,2000
2017-03-13T16:40:03.316Z,2000
2017-03-13T16:45:02.924Z,1000
2017-03-13T16:50:02.843Z,1000
2017-03-13T16:55:03.405Z,1000
2017-03-13T17:00:03.039Z,1000
2017-03-13T17:05:02.653Z,1000
2017-03-13T17:10:03.329Z,869
2017-03-13T17:15:03.025Z,742
2017-03-13T17:20:02.655Z,611
2017-03-13T17:25:03.243Z,479
2017-03-13T17:30:02.792Z,348
2017-03-13T17:35:02.535Z,218
2017-03-13T17:40:03.435Z,63
2017-03-13T17:45:03.020Z,50
2017-03-13T17:50:02.625Z,40
2017-03-13T17:55:03.317Z,26
2017-03-13T18:00:03.049Z,12
2017-03-13T18:05:02.817Z,5
2017-03-13T18:10:02.803Z,2
2017-03-13T18:15:02.522Z,0
2017-03-13T18:20:03.122Z,0
2017-03-13T18:25:02.709Z,0
2017-03-13T18:30:03.457Z,0
2017-03-13T18:35:03.025Z,0
2017-03-13T18:40:02.705Z,0
2017-03-13T18:45:03.404Z,0
2017-03-13T18:50:03.121Z,0
2017-03-13T18:55:02.795Z,0
2017-03-13T19:00:02.466Z,0
2017-03-13T19:05:03.185Z,0
2017-03-13T19:10:02.889Z,0
2017-03-13T19:15:02.611Z,0
2017-03-13T19:20:03.303Z,0
2017-03-13T19:25:02.903Z,0
2017-03-13T19:30:02.539Z,0
2017-03-13T19:35:03.132Z,0
2017-03-13T19:40:02.790Z,0
2017-03-13T19:45:02.499Z,0
2017-03-13T19:50:03.152Z,0
2017-03-13T19:55:02.874Z,0
2017-03-13T20:00:02.458Z,0
2017-03-13T20:05:03.128Z,0
2017-03-13T20:10:02.757Z,0
2017-03-13T20:15:03.329Z,0
2017-03-13T20:20:02.989Z,0
2017-03-13T20:25:02.608Z,0
2017-03-13T20:30:03.230Z,0
2017-03-13T20:35:02.875Z,0
2017-03-13T20:40:02.689Z,0
2017-03-13T20:45:02.488Z,0
2017-03-13T20:50:03.205Z,0
2017-03-13T20:55:02.878Z,0
2017-03-13T21:00:03.448Z,0
2017-03-13T21:05:03.250Z,0
2017-03-13T21:10:03.098Z,0
2017-03-13T21:15:02.769Z,0
2017-03-13T21:20:03.449Z,0
2017-03-13T21:25:03.148Z,0
2017-03-13T21:30:02.794Z,0
2017-03-13T21:35:03.351Z,0
2017-03-13T21:40:03.153Z,0
2017-03-13T21:45:02.874Z,0
2017-03-13T21:50:02.532Z,0
2017-03-13T21:55:03.228Z,0
2017-03-13T22:00:03.012Z,0
2017-03-13T22:05:02.667Z,0
2017-03-13T22:10:02.469Z,0
2017-03-13T22:15:03.145Z,0
2017-03-13T22:20:02.810Z,0
2017-03-13T22:25:02.479Z,0
2017-03-13T22:30:03.402Z,0
2017-03-13T22:35:03.187Z,0
2017-03-13T22:40:02.960Z,0
2017-03-13T22:45:02.475Z,0
2017-03-13T22:50:03.246Z,0
2017-03-13T22:55:02.933Z,0
2017-03-13T23:00:02.494Z,0
2017-03-13T23:05:03.240Z,0
2017-03-13T23:10:03.148Z,0
2017-03-13T23:15:02.714Z,0
2017-03-13T23:20:03.341Z,0
2017-03-13T23:25:02.992Z,0
2017-03-13T23:30:02.708Z,0
2017-03-13T23:35:03.323Z,0
2017-03-13T23:40:03.036Z,0
2017-03-13T23:45:02.661Z,0
2017-03-13T23:50:03.338Z,0
2017-03-13T23:55:03.147Z,0
